Terminal Aerodrome Forecast
Issued by NWS

Home | Current Version | Previous Version | Text Only | Print | Product List | Glossary On
Versions: 1 2 3 4 5 6 7 8 9 10 11 12
000
FTUS43 KJKL 200537
TAFSME
TAF
KSME 200537Z 2006/2106 VRB03KT P6SM SKC
     FM200700 VRB03KT 5SM BR SKC
     FM201000 VRB03KT 2SM BR SCT002
     FM201200 VRB03KT 3SM BR SKC
     FM201600 VRB03KT P6SM FEW050
     FM202300 VRB03KT P6SM FEW250=

USA.gov is the U.S. government's official web portal to all federal, state and local government web resources and services.